sensor_id;sensor_type;location;lat;lon;timestamp;noise_LAeq;noise_LA_min;noise_LA_max;noise_LA01;noise_LA95
72858;Laerm;62742;52.136;4.500;2023-06-10T00:00:09;46.31;43.78;53.34;;
72858;Laerm;62742;52.136;4.500;2023-06-10T00:02:49;46.19;43.34;53.63;;
72858;Laerm;62742;52.136;4.500;2023-06-10T00:05:18;46.12;43.04;50.64;;
72858;Laerm;62742;52.136;4.500;2023-06-10T00:07:51;46.56;43.50;53.37;;
72858;Laerm;62742;52.136;4.500;2023-06-10T00:10:21;46.35;42.78;49.44;;
72858;Laerm;62742;52.136;4.500;2023-06-10T00:12:48;45.50;42.01;50.45;;
72858;Laerm;62742;52.136;4.500;2023-06-10T00:15:14;45.83;42.43;48.76;;
72858;Laerm;62742;52.136;4.500;2023-06-10T00:17:40;45.86;42.13;49.30;;
72858;Laerm;62742;52.136;4.500;2023-06-10T00:20:08;46.46;42.58;50.11;;
72858;Laerm;62742;52.136;4.500;2023-06-10T00:22:37;46.51;42.93;50.56;;
72858;Laerm;62742;52.136;4.500;2023-06-10T00:25:05;46.17;42.48;49.67;;
72858;Laerm;62742;52.136;4.500;2023-06-10T00:27:36;46.65;42.35;51.73;;
72858;Laerm;62742;52.136;4.500;2023-06-10T00:30:04;46.61;42.55;50.12;;
72858;Laerm;62742;52.136;4.500;2023-06-10T00:32:36;46.47;41.98;52.49;;
72858;Laerm;62742;52.136;4.500;2023-06-10T00:35:08;46.38;42.76;54.73;;
72858;Laerm;62742;52.136;4.500;2023-06-10T00:37:35;46.76;42.45;51.11;;
72858;Laerm;62742;52.136;4.500;2023-06-10T00:40:06;46.14;41.91;50.03;;
72858;Laerm;62742;52.136;4.500;2023-06-10T00:42:37;46.17;41.87;49.73;;
72858;Laerm;62742;52.136;4.500;2023-06-10T00:45:04;46.18;41.82;50.09;;
72858;Laerm;62742;52.136;4.500;2023-06-10T00:47:30;46.42;42.34;52.32;;
72858;Laerm;62742;52.136;4.500;2023-06-10T00:49:57;45.62;41.91;49.04;;
72858;Laerm;62742;52.136;4.500;2023-06-10T00:52:28;45.69;41.97;49.18;;
72858;Laerm;62742;52.136;4.500;2023-06-10T00:54:54;45.86;42.33;48.97;;
72858;Laerm;62742;52.136;4.500;2023-06-10T00:57:21;45.74;42.13;49.00;;
72858;Laerm;62742;52.136;4.500;2023-06-10T00:59:48;45.67;42.08;48.94;;
72858;Laerm;62742;52.136;4.500;2023-06-10T01:02:15;45.91;42.53;49.38;;
72858;Laerm;62742;52.136;4.500;2023-06-10T01:04:41;45.79;42.65;49.58;;
72858;Laerm;62742;52.136;4.500;2023-06-10T01:07:28;45.85;42.38;49.23;;
72858;Laerm;62742;52.136;4.500;2023-06-10T01:10:04;45.72;41.92;51.96;;
72858;Laerm;62742;52.136;4.500;2023-06-10T01:15:17;45.59;42.40;51.12;;
72858;Laerm;62742;52.136;4.500;2023-06-10T01:20:25;46.07;42.03;49.23;;
72858;Laerm;62742;52.136;4.500;2023-06-10T01:22:56;45.93;41.65;48.92;;
72858;Laerm;62742;52.136;4.500;2023-06-10T01:25:24;46.17;42.65;53.14;;
72858;Laerm;62742;52.136;4.500;2023-06-10T01:28:15;45.97;41.66;49.26;;
72858;Laerm;62742;52.136;4.500;2023-06-10T01:31:16;46.21;42.39;51.52;;
72858;Laerm;62742;52.136;4.500;2023-06-10T01:33:47;46.05;42.68;52.06;;
72858;Laerm;62742;52.136;4.500;2023-06-10T01:36:16;46.21;43.57;48.52;;
72858;Laerm;62742;52.136;4.500;2023-06-10T01:38:44;46.77;43.01;53.54;;
72858;Laerm;62742;52.136;4.500;2023-06-10T01:41:17;46.40;42.72;49.94;;
72858;Laerm;62742;52.136;4.500;2023-06-10T01:43:45;45.47;41.98;51.32;;
72858;Laerm;62742;52.136;4.500;2023-06-10T01:46:11;45.75;42.32;50.80;;
72858;Laerm;62742;52.136;4.500;2023-06-10T01:48:38;46.27;42.63;52.48;;
72858;Laerm;62742;52.136;4.500;2023-06-10T01:51:05;46.06;42.78;51.37;;
72858;Laerm;62742;52.136;4.500;2023-06-10T01:53:31;46.09;43.41;52.63;;
72858;Laerm;62742;52.136;4.500;2023-06-10T01:55:58;46.36;43.73;49.22;;
72858;Laerm;62742;52.136;4.500;2023-06-10T01:58:24;46.59;43.76;52.11;;
72858;Laerm;62742;52.136;4.500;2023-06-10T02:00:50;46.85;43.50;52.92;;
72858;Laerm;62742;52.136;4.500;2023-06-10T02:03:16;46.16;42.93;49.76;;
72858;Laerm;62742;52.136;4.500;2023-06-10T02:05:42;46.20;42.85;51.34;;
72858;Laerm;62742;52.136;4.500;2023-06-10T02:08:09;46.13;43.16;50.84;;
72858;Laerm;62742;52.136;4.500;2023-06-10T02:10:35;45.99;43.43;51.86;;
72858;Laerm;62742;52.136;4.500;2023-06-10T02:13:01;45.88;42.68;51.07;;
72858;Laerm;62742;52.136;4.500;2023-06-10T02:15:28;45.94;43.51;48.57;;
72858;Laerm;62742;52.136;4.500;2023-06-10T02:17:54;46.23;43.63;49.06;;
72858;Laerm;62742;52.136;4.500;2023-06-10T02:20:21;46.87;44.13;49.55;;
72858;Laerm;62742;52.136;4.500;2023-06-10T02:22:48;46.48;43.72;52.85;;
72858;Laerm;62742;52.136;4.500;2023-06-10T02:25:14;46.11;42.12;49.23;;
72858;Laerm;62742;52.136;4.500;2023-06-10T02:27:40;45.75;42.61;49.42;;
72858;Laerm;62742;52.136;4.500;2023-06-10T02:30:06;45.73;42.48;48.97;;
72858;Laerm;62742;52.136;4.500;2023-06-10T02:32:35;45.90;42.59;48.97;;
72858;Laerm;62742;52.136;4.500;2023-06-10T02:35:02;45.51;42.11;51.15;;
72858;Laerm;62742;52.136;4.500;2023-06-10T02:37:28;45.42;42.31;52.23;;
72858;Laerm;62742;52.136;4.500;2023-06-10T02:39:54;45.51;42.24;48.94;;
72858;Laerm;62742;52.136;4.500;2023-06-10T02:42:20;45.61;41.90;49.27;;
72858;Laerm;62742;52.136;4.500;2023-06-10T02:44:46;45.55;42.30;48.13;;
72858;Laerm;62742;52.136;4.500;2023-06-10T02:47:13;45.59;42.18;49.59;;
72858;Laerm;62742;52.136;4.500;2023-06-10T02:49:39;45.55;42.00;49.35;;
72858;Laerm;62742;52.136;4.500;2023-06-10T02:52:06;45.29;41.97;49.49;;
72858;Laerm;62742;52.136;4.500;2023-06-10T02:54:33;45.62;42.42;48.76;;
72858;Laerm;62742;52.136;4.500;2023-06-10T02:57:01;45.79;42.33;49.29;;
72858;Laerm;62742;52.136;4.500;2023-06-10T02:59:28;45.59;41.87;48.54;;
72858;Laerm;62742;52.136;4.500;2023-06-10T03:01:54;45.32;42.52;48.31;;
72858;Laerm;62742;52.136;4.500;2023-06-10T03:04:20;45.53;42.69;49.51;;
72858;Laerm;62742;52.136;4.500;2023-06-10T03:06:46;45.86;42.91;49.07;;
72858;Laerm;62742;52.136;4.500;2023-06-10T03:09:13;45.77;42.62;52.25;;
72858;Laerm;62742;52.136;4.500;2023-06-10T03:11:39;46.18;43.64;53.43;;
72858;Laerm;62742;52.136;4.500;2023-06-10T03:14:08;46.26;42.58;49.50;;
72858;Laerm;62742;52.136;4.500;2023-06-10T03:16:34;45.84;42.62;48.98;;
72858;Laerm;62742;52.136;4.500;2023-06-10T03:19:00;46.07;42.80;48.82;;
72858;Laerm;62742;52.136;4.500;2023-06-10T03:21:26;45.61;42.70;48.68;;
72858;Laerm;62742;52.136;4.500;2023-06-10T03:23:53;45.63;42.65;50.84;;
72858;Laerm;62742;52.136;4.500;2023-06-10T03:26:19;45.80;42.18;52.69;;
72858;Laerm;62742;52.136;4.500;2023-06-10T03:28:47;46.29;43.58;53.29;;
72858;Laerm;62742;52.136;4.500;2023-06-10T03:31:14;46.27;43.71;52.18;;
72858;Laerm;62742;52.136;4.500;2023-06-10T03:33:42;46.32;43.80;52.31;;
72858;Laerm;62742;52.136;4.500;2023-06-10T03:36:09;46.58;42.60;51.49;;
72858;Laerm;62742;52.136;4.500;2023-06-10T03:38:35;46.16;42.91;49.48;;
72858;Laerm;62742;52.136;4.500;2023-06-10T03:41:03;46.66;43.40;49.83;;
72858;Laerm;62742;52.136;4.500;2023-06-10T03:43:29;46.81;43.60;50.99;;
72858;Laerm;62742;52.136;4.500;2023-06-10T03:45:57;46.81;43.64;49.96;;
72858;Laerm;62742;52.136;4.500;2023-06-10T03:48:23;46.56;43.35;49.57;;
72858;Laerm;62742;52.136;4.500;2023-06-10T03:50:49;46.39;43.34;49.74;;
72858;Laerm;62742;52.136;4.500;2023-06-10T03:53:16;46.45;43.02;50.34;;
72858;Laerm;62742;52.136;4.500;2023-06-10T03:55:43;45.94;42.48;49.27;;
72858;Laerm;62742;52.136;4.500;2023-06-10T03:58:09;45.72;42.24;48.65;;
72858;Laerm;62742;52.136;4.500;2023-06-10T04:00:35;45.90;43.01;48.46;;
72858;Laerm;62742;52.136;4.500;2023-06-10T04:03:08;45.92;42.65;49.20;;
72858;Laerm;62742;52.136;4.500;2023-06-10T04:05:35;46.28;43.58;49.08;;
72858;Laerm;62742;52.136;4.500;2023-06-10T04:08:04;45.90;42.67;49.86;;
72858;Laerm;62742;52.136;4.500;2023-06-10T04:10:31;45.85;42.70;48.55;;
72858;Laerm;62742;52.136;4.500;2023-06-10T04:12:57;45.88;42.34;49.41;;
72858;Laerm;62742;52.136;4.500;2023-06-10T04:15:23;46.47;43.47;52.40;;
72858;Laerm;62742;52.136;4.500;2023-06-10T04:17:49;45.97;43.48;48.17;;
72858;Laerm;62742;52.136;4.500;2023-06-10T04:20:16;45.93;43.31;51.07;;
72858;Laerm;62742;52.136;4.500;2023-06-10T04:22:42;46.16;43.12;51.82;;
72858;Laerm;62742;52.136;4.500;2023-06-10T04:25:09;46.25;43.29;52.91;;
72858;Laerm;62742;52.136;4.500;2023-06-10T04:27:35;46.57;43.92;52.92;;
72858;Laerm;62742;52.136;4.500;2023-06-10T04:30:03;47.29;44.20;53.14;;
72858;Laerm;62742;52.136;4.500;2023-06-10T04:32:30;47.04;43.24;49.99;;
72858;Laerm;62742;52.136;4.500;2023-06-10T04:34:56;47.03;43.99;49.84;;
72858;Laerm;62742;52.136;4.500;2023-06-10T04:37:22;46.49;43.13;49.65;;
72858;Laerm;62742;52.136;4.500;2023-06-10T04:39:48;46.45;42.92;50.13;;
72858;Laerm;62742;52.136;4.500;2023-06-10T04:42:14;46.48;41.98;49.55;;
72858;Laerm;62742;52.136;4.500;2023-06-10T04:44:41;46.15;42.73;51.64;;
72858;Laerm;62742;52.136;4.500;2023-06-10T04:47:07;46.36;43.75;50.59;;
72858;Laerm;62742;52.136;4.500;2023-06-10T04:49:33;46.23;43.44;49.37;;
72858;Laerm;62742;52.136;4.500;2023-06-10T04:52:03;46.39;43.57;54.09;;
72858;Laerm;62742;52.136;4.500;2023-06-10T04:54:30;46.99;44.27;51.93;;
72858;Laerm;62742;52.136;4.500;2023-06-10T04:56:58;46.58;43.92;53.90;;
72858;Laerm;62742;52.136;4.500;2023-06-10T04:59:26;46.30;42.54;53.69;;
72858;Laerm;62742;52.136;4.500;2023-06-10T05:01:52;46.50;43.32;48.90;;
72858;Laerm;62742;52.136;4.500;2023-06-10T05:04:18;46.39;42.88;54.41;;
72858;Laerm;62742;52.136;4.500;2023-06-10T05:06:44;45.91;42.34;59.24;;
72858;Laerm;62742;52.136;4.500;2023-06-10T05:09:11;46.25;42.73;54.18;;
72858;Laerm;62742;52.136;4.500;2023-06-10T05:11:37;46.53;43.56;52.84;;
72858;Laerm;62742;52.136;4.500;2023-06-10T05:14:03;47.13;44.18;50.24;;
72858;Laerm;62742;52.136;4.500;2023-06-10T05:16:29;47.18;44.38;49.75;;
72858;Laerm;62742;52.136;4.500;2023-06-10T05:18:56;47.29;44.22;53.75;;
72858;Laerm;62742;52.136;4.500;2023-06-10T05:21:22;46.57;43.60;49.90;;
72858;Laerm;62742;52.136;4.500;2023-06-10T05:23:48;46.33;42.75;49.73;;
72858;Laerm;62742;52.136;4.500;2023-06-10T05:26:14;46.15;42.60;52.57;;
72858;Laerm;62742;52.136;4.500;2023-06-10T05:28:41;46.39;43.62;53.34;;
72858;Laerm;62742;52.136;4.500;2023-06-10T05:31:07;47.27;43.94;53.43;;
72858;Laerm;62742;52.136;4.500;2023-06-10T05:33:36;46.50;43.53;54.14;;
72858;Laerm;62742;52.136;4.500;2023-06-10T05:36:02;46.67;44.07;49.05;;
72858;Laerm;62742;52.136;4.500;2023-06-10T05:38:29;46.55;43.54;51.96;;
72858;Laerm;62742;52.136;4.500;2023-06-10T05:40:55;47.60;43.83;53.29;;
72858;Laerm;62742;52.136;4.500;2023-06-10T05:43:22;47.05;43.82;50.98;;
72858;Laerm;62742;52.136;4.500;2023-06-10T05:45:49;46.73;43.43;49.81;;
72858;Laerm;62742;52.136;4.500;2023-06-10T05:48:15;47.00;43.88;50.00;;
72858;Laerm;62742;52.136;4.500;2023-06-10T05:50:41;46.86;42.82;49.85;;
72858;Laerm;62742;52.136;4.500;2023-06-10T05:53:08;46.93;43.75;49.72;;
72858;Laerm;62742;52.136;4.500;2023-06-10T05:55:44;46.98;44.15;49.55;;
72858;Laerm;62742;52.136;4.500;2023-06-10T05:58:11;46.76;43.28;49.49;;
72858;Laerm;62742;52.136;4.500;2023-06-10T06:00:39;46.76;43.89;50.06;;
72858;Laerm;62742;52.136;4.500;2023-06-10T06:03:07;46.65;43.56;49.58;;
72858;Laerm;62742;52.136;4.500;2023-06-10T06:05:34;46.63;43.81;49.26;;
72858;Laerm;62742;52.136;4.500;2023-06-10T06:08:04;47.09;43.37;50.10;;
72858;Laerm;62742;52.136;4.500;2023-06-10T06:10:31;46.54;43.53;51.17;;
72858;Laerm;62742;52.136;4.500;2023-06-10T06:12:57;46.74;43.97;52.32;;
72858;Laerm;62742;52.136;4.500;2023-06-10T06:15:23;46.99;44.28;51.86;;
72858;Laerm;62742;52.136;4.500;2023-06-10T06:17:50;46.76;43.61;49.63;;
72858;Laerm;62742;52.136;4.500;2023-06-10T06:20:22;46.77;42.96;50.33;;
72858;Laerm;62742;52.136;4.500;2023-06-10T06:22:48;46.71;43.27;50.03;;
72858;Laerm;62742;52.136;4.500;2023-06-10T06:25:15;46.84;43.16;50.37;;
72858;Laerm;62742;52.136;4.500;2023-06-10T06:27:41;46.93;43.45;49.74;;
72858;Laerm;62742;52.136;4.500;2023-06-10T06:30:07;46.77;43.20;50.52;;
72858;Laerm;62742;52.136;4.500;2023-06-10T06:32:34;46.34;43.57;50.62;;
72858;Laerm;62742;52.136;4.500;2023-06-10T06:35:00;46.38;43.48;48.83;;
72858;Laerm;62742;52.136;4.500;2023-06-10T06:37:26;46.58;43.78;48.98;;
72858;Laerm;62742;52.136;4.500;2023-06-10T06:39:59;47.41;44.05;51.09;;
72858;Laerm;62742;52.136;4.500;2023-06-10T06:42:25;47.18;43.80;50.42;;
72858;Laerm;62742;52.136;4.500;2023-06-10T06:44:57;46.47;43.43;52.03;;
72858;Laerm;62742;52.136;4.500;2023-06-10T06:47:24;46.55;43.23;49.81;;
72858;Laerm;62742;52.136;4.500;2023-06-10T06:50:11;46.18;43.03;50.32;;
72858;Laerm;62742;52.136;4.500;2023-06-10T06:53:08;46.58;43.63;50.19;;
72858;Laerm;62742;52.136;4.500;2023-06-10T06:55:34;48.70;43.29;54.03;;
72858;Laerm;62742;52.136;4.500;2023-06-10T06:58:02;50.15;45.05;55.77;;
72858;Laerm;62742;52.136;4.500;2023-06-10T07:00:36;47.48;44.36;54.26;;
72858;Laerm;62742;52.136;4.500;2023-06-10T07:03:13;47.52;44.78;49.99;;
72858;Laerm;62742;52.136;4.500;2023-06-10T07:05:46;47.65;45.29;50.06;;
72858;Laerm;62742;52.136;4.500;2023-06-10T07:08:19;48.04;45.28;50.64;;
72858;Laerm;62742;52.136;4.500;2023-06-10T07:10:47;48.10;45.64;50.74;;
72858;Laerm;62742;52.136;4.500;2023-06-10T07:13:15;47.74;43.83;55.77;;
72858;Laerm;62742;52.136;4.500;2023-06-10T07:15:43;47.43;44.00;50.60;;
72858;Laerm;62742;52.136;4.500;2023-06-10T07:18:16;47.50;44.17;55.05;;
72858;Laerm;62742;52.136;4.500;2023-06-10T07:20:46;47.39;44.19;53.97;;
72858;Laerm;62742;52.136;4.500;2023-06-10T07:23:13;47.36;43.88;50.00;;
72858;Laerm;62742;52.136;4.500;2023-06-10T07:25:41;47.42;43.98;50.81;;
72858;Laerm;62742;52.136;4.500;2023-06-10T07:28:08;47.01;43.28;53.46;;
72858;Laerm;62742;52.136;4.500;2023-06-10T07:30:40;47.03;43.80;54.24;;
72858;Laerm;62742;52.136;4.500;2023-06-10T07:33:06;47.10;44.18;53.75;;
72858;Laerm;62742;52.136;4.500;2023-06-10T07:35:33;47.17;43.28;52.55;;
72858;Laerm;62742;52.136;4.500;2023-06-10T07:37:59;46.88;44.31;55.19;;
72858;Laerm;62742;52.136;4.500;2023-06-10T07:40:25;47.04;43.28;55.36;;
72858;Laerm;62742;52.136;4.500;2023-06-10T07:42:52;47.04;44.25;54.24;;
72858;Laerm;62742;52.136;4.500;2023-06-10T07:45:19;47.20;43.96;53.71;;
72858;Laerm;62742;52.136;4.500;2023-06-10T07:47:45;46.77;43.86;54.30;;
72858;Laerm;62742;52.136;4.500;2023-06-10T07:50:11;46.67;43.81;54.74;;
72858;Laerm;62742;52.136;4.500;2023-06-10T07:52:37;47.27;43.77;54.50;;
72858;Laerm;62742;52.136;4.500;2023-06-10T07:55:04;47.67;44.30;50.48;;
72858;Laerm;62742;52.136;4.500;2023-06-10T07:57:32;47.40;43.65;53.29;;
72858;Laerm;62742;52.136;4.500;2023-06-10T08:00:00;47.35;44.10;54.48;;
72858;Laerm;62742;52.136;4.500;2023-06-10T08:02:29;47.40;43.87;54.45;;
72858;Laerm;62742;52.136;4.500;2023-06-10T08:04:58;47.39;44.77;54.71;;
72858;Laerm;62742;52.136;4.500;2023-06-10T08:07:24;47.57;44.69;53.22;;
72858;Laerm;62742;52.136;4.500;2023-06-10T08:09:51;47.09;44.79;49.22;;
72858;Laerm;62742;52.136;4.500;2023-06-10T08:12:18;48.05;43.92;54.63;;
72858;Laerm;62742;52.136;4.500;2023-06-10T08:14:46;47.41;44.08;54.82;;
72858;Laerm;62742;52.136;4.500;2023-06-10T08:17:12;47.28;44.38;55.44;;
72858;Laerm;62742;52.136;4.500;2023-06-10T08:19:39;47.18;43.24;53.99;;
72858;Laerm;62742;52.136;4.500;2023-06-10T08:22:05;47.03;43.27;53.15;;
72858;Laerm;62742;52.136;4.500;2023-06-10T08:24:32;47.17;44.53;49.55;;
72858;Laerm;62742;52.136;4.500;2023-06-10T08:26:58;47.34;44.57;49.66;;
72858;Laerm;62742;52.136;4.500;2023-06-10T08:29:25;47.50;43.64;54.60;;
72858;Laerm;62742;52.136;4.500;2023-06-10T08:31:51;47.22;43.53;54.24;;
72858;Laerm;62742;52.136;4.500;2023-06-10T08:34:18;47.45;44.26;50.20;;
72858;Laerm;62742;52.136;4.500;2023-06-10T08:36:47;47.27;43.95;55.67;;
72858;Laerm;62742;52.136;4.500;2023-06-10T08:39:13;47.04;43.70;54.33;;
72858;Laerm;62742;52.136;4.500;2023-06-10T08:41:45;46.98;43.49;54.41;;
72858;Laerm;62742;52.136;4.500;2023-06-10T08:44:28;47.47;43.77;54.26;;
72858;Laerm;62742;52.136;4.500;2023-06-10T08:47:14;47.38;42.99;53.34;;
72858;Laerm;62742;52.136;4.500;2023-06-10T08:49:46;47.42;43.63;54.42;;
72858;Laerm;62742;52.136;4.500;2023-06-10T08:52:17;47.12;44.52;54.01;;
72858;Laerm;62742;52.136;4.500;2023-06-10T08:54:52;47.30;43.68;60.62;;
72858;Laerm;62742;52.136;4.500;2023-06-10T08:57:19;47.48;44.49;54.29;;
72858;Laerm;62742;52.136;4.500;2023-06-10T08:59:53;47.38;44.79;49.80;;
72858;Laerm;62742;52.136;4.500;2023-06-10T09:02:20;47.68;44.51;50.24;;
72858;Laerm;62742;52.136;4.500;2023-06-10T09:04:47;48.29;45.08;53.51;;
72858;Laerm;62742;52.136;4.500;2023-06-10T09:07:26;47.14;44.21;54.33;;
72858;Laerm;62742;52.136;4.500;2023-06-10T09:09:53;47.42;43.66;50.05;;
72858;Laerm;62742;52.136;4.500;2023-06-10T09:12:20;47.87;43.72;54.75;;
72858;Laerm;62742;52.136;4.500;2023-06-10T09:14:56;48.02;44.52;52.07;;
72858;Laerm;62742;52.136;4.500;2023-06-10T09:17:22;48.10;44.73;54.61;;
72858;Laerm;62742;52.136;4.500;2023-06-10T09:19:55;47.40;44.69;53.20;;
72858;Laerm;62742;52.136;4.500;2023-06-10T09:22:29;47.99;44.93;54.52;;
72858;Laerm;62742;52.136;4.500;2023-06-10T09:25:36;47.37;43.87;53.04;;
72858;Laerm;62742;52.136;4.500;2023-06-10T09:28:04;47.47;43.51;54.61;;
72858;Laerm;62742;52.136;4.500;2023-06-10T09:30:32;48.25;44.66;53.79;;
72858;Laerm;62742;52.136;4.500;2023-06-10T09:36:36;47.80;43.92;54.47;;
72858;Laerm;62742;52.136;4.500;2023-06-10T09:39:13;47.39;45.05;49.71;;
72858;Laerm;62742;52.136;4.500;2023-06-10T09:41:42;47.89;44.83;53.02;;
72858;Laerm;62742;52.136;4.500;2023-06-10T09:44:18;47.49;43.84;50.24;;
72858;Laerm;62742;52.136;4.500;2023-06-10T09:46:49;47.94;45.18;55.04;;
72858;Laerm;62742;52.136;4.500;2023-06-10T09:49:16;47.52;44.12;54.23;;
72858;Laerm;62742;52.136;4.500;2023-06-10T09:51:50;47.25;44.61;49.84;;
72858;Laerm;62742;52.136;4.500;2023-06-10T09:54:17;47.59;44.90;49.74;;
72858;Laerm;62742;52.136;4.500;2023-06-10T09:56:47;47.62;44.40;55.48;;
72858;Laerm;62742;52.136;4.500;2023-06-10T09:59:13;47.78;44.54;52.89;;
72858;Laerm;62742;52.136;4.500;2023-06-10T10:01:40;47.55;44.31;54.41;;
72858;Laerm;62742;52.136;4.500;2023-06-10T10:04:06;48.15;45.13;54.35;;
72858;Laerm;62742;52.136;4.500;2023-06-10T10:06:34;47.65;45.26;56.19;;
72858;Laerm;62742;52.136;4.500;2023-06-10T10:09:04;48.30;45.49;53.56;;
72858;Laerm;62742;52.136;4.500;2023-06-10T10:11:31;47.51;44.77;54.24;;
72858;Laerm;62742;52.136;4.500;2023-06-10T10:13:59;47.74;44.88;54.06;;
72858;Laerm;62742;52.136;4.500;2023-06-10T10:16:30;47.67;44.86;51.49;;
72858;Laerm;62742;52.136;4.500;2023-06-10T10:19:18;47.71;44.21;49.92;;
72858;Laerm;62742;52.136;4.500;2023-06-10T10:21:53;47.91;45.33;53.81;;
72858;Laerm;62742;52.136;4.500;2023-06-10T10:24:23;48.75;44.59;52.74;;
72858;Laerm;62742;52.136;4.500;2023-06-10T10:26:55;48.29;45.20;53.54;;
72858;Laerm;62742;52.136;4.500;2023-06-10T10:29:31;48.39;45.59;53.28;;
72858;Laerm;62742;52.136;4.500;2023-06-10T10:31:59;48.24;45.24;50.87;;
72858;Laerm;62742;52.136;4.500;2023-06-10T10:34:37;48.42;45.37;54.70;;
72858;Laerm;62742;52.136;4.500;2023-06-10T10:37:06;48.12;45.50;50.44;;
72858;Laerm;62742;52.136;4.500;2023-06-10T10:39:34;48.64;45.54;53.64;;
72858;Laerm;62742;52.136;4.500;2023-06-10T10:42:04;49.97;45.29;53.74;;
72858;Laerm;62742;52.136;4.500;2023-06-10T10:44:32;48.27;45.49;52.83;;
72858;Laerm;62742;52.136;4.500;2023-06-10T10:47:02;49.58;44.64;54.92;;
72858;Laerm;62742;52.136;4.500;2023-06-10T10:49:30;48.75;45.65;54.78;;
72858;Laerm;62742;52.136;4.500;2023-06-10T10:52:00;48.44;45.50;55.05;;
72858;Laerm;62742;52.136;4.500;2023-06-10T10:54:31;48.40;45.81;50.47;;
72858;Laerm;62742;52.136;4.500;2023-06-10T10:57:18;48.66;45.59;56.37;;
72858;Laerm;62742;52.136;4.500;2023-06-10T11:02:45;49.03;44.68;54.09;;
72858;Laerm;62742;52.136;4.500;2023-06-10T11:05:16;48.42;45.42;53.87;;
72858;Laerm;62742;52.136;4.500;2023-06-10T11:08:01;48.38;45.56;54.17;;
72858;Laerm;62742;52.136;4.500;2023-06-10T11:10:36;49.87;45.26;53.91;;
72858;Laerm;62742;52.136;4.500;2023-06-10T11:13:12;48.60;44.39;53.55;;
72858;Laerm;62742;52.136;4.500;2023-06-10T11:15:46;49.38;44.87;54.62;;
72858;Laerm;62742;52.136;4.500;2023-06-10T11:28:39;48.14;44.93;54.65;;
72858;Laerm;62742;52.136;4.500;2023-06-10T11:31:06;48.54;45.05;55.90;;
72858;Laerm;62742;52.136;4.500;2023-06-10T11:33:32;48.86;44.84;54.60;;
72858;Laerm;62742;52.136;4.500;2023-06-10T11:35:59;48.12;45.13;50.51;;
72858;Laerm;62742;52.136;4.500;2023-06-10T11:38:25;48.31;45.58;55.05;;
72858;Laerm;62742;52.136;4.500;2023-06-10T11:40:53;49.72;44.31;55.30;;
72858;Laerm;62742;52.136;4.500;2023-06-10T11:43:20;49.27;44.92;53.40;;
72858;Laerm;62742;52.136;4.500;2023-06-10T11:45:46;47.68;44.27;54.96;;
72858;Laerm;62742;52.136;4.500;2023-06-10T11:48:12;46.73;44.17;49.10;;
72858;Laerm;62742;52.136;4.500;2023-06-10T11:50:39;46.75;44.31;49.06;;
72858;Laerm;62742;52.136;4.500;2023-06-10T11:53:08;46.77;43.88;52.71;;
72858;Laerm;62742;52.136;4.500;2023-06-10T11:58:17;47.86;44.06;54.84;;
72858;Laerm;62742;52.136;4.500;2023-06-10T12:00:48;48.00;44.42;53.94;;
72858;Laerm;62742;52.136;4.500;2023-06-10T12:03:16;46.94;44.44;49.97;;
72858;Laerm;62742;52.136;4.500;2023-06-10T12:06:04;48.03;44.55;53.47;;
72858;Laerm;62742;52.136;4.500;2023-06-10T12:08:32;49.18;44.19;55.11;;
72858;Laerm;62742;52.136;4.500;2023-06-10T12:10:58;48.68;44.40;55.41;;
72858;Laerm;62742;52.136;4.500;2023-06-10T12:13:27;49.01;45.34;54.55;;
72858;Laerm;62742;52.136;4.500;2023-06-10T12:15:53;48.64;45.07;55.78;;
72858;Laerm;62742;52.136;4.500;2023-06-10T12:18:22;47.75;44.25;54.90;;
72858;Laerm;62742;52.136;4.500;2023-06-10T12:20:50;47.76;44.43;54.12;;
72858;Laerm;62742;52.136;4.500;2023-06-10T12:23:17;47.27;44.66;51.06;;
72858;Laerm;62742;52.136;4.500;2023-06-10T12:25:54;47.29;44.33;51.41;;
72858;Laerm;62742;52.136;4.500;2023-06-10T12:28:24;47.27;44.53;54.05;;
72858;Laerm;62742;52.136;4.500;2023-06-10T12:30:50;47.67;43.78;54.46;;
72858;Laerm;62742;52.136;4.500;2023-06-10T12:33:21;47.10;44.29;53.36;;
72858;Laerm;62742;52.136;4.500;2023-06-10T12:35:49;47.03;44.09;52.17;;
72858;Laerm;62742;52.136;4.500;2023-06-10T12:38:21;47.18;43.53;53.94;;
72858;Laerm;62742;52.136;4.500;2023-06-10T12:40:47;46.88;43.73;54.47;;
72858;Laerm;62742;52.136;4.500;2023-06-10T12:43:19;46.84;44.08;55.58;;
72858;Laerm;62742;52.136;4.500;2023-06-10T12:45:46;47.54;44.47;55.34;;
72858;Laerm;62742;52.136;4.500;2023-06-10T12:48:21;47.38;44.29;53.64;;
72858;Laerm;62742;52.136;4.500;2023-06-10T12:50:58;47.07;44.00;54.74;;
72858;Laerm;62742;52.136;4.500;2023-06-10T12:53:25;47.25;44.62;50.29;;
72858;Laerm;62742;52.136;4.500;2023-06-10T12:55:54;47.46;44.27;54.21;;
72858;Laerm;62742;52.136;4.500;2023-06-10T12:58:21;47.60;43.53;54.94;;
72858;Laerm;62742;52.136;4.500;2023-06-10T13:04:11;47.30;44.35;55.09;;
72858;Laerm;62742;52.136;4.500;2023-06-10T13:06:41;47.14;43.84;55.03;;
72858;Laerm;62742;52.136;4.500;2023-06-10T13:09:17;46.69;43.91;53.89;;
72858;Laerm;62742;52.136;4.500;2023-06-10T13:11:45;46.74;42.96;54.36;;
72858;Laerm;62742;52.136;4.500;2023-06-10T13:14:12;46.83;44.13;54.63;;
72858;Laerm;62742;52.136;4.500;2023-06-10T13:16:48;46.90;44.55;49.70;;
72858;Laerm;62742;52.136;4.500;2023-06-10T13:19:15;46.63;43.08;55.72;;
72858;Laerm;62742;52.136;4.500;2023-06-10T13:21:54;47.13;44.47;49.69;;
72858;Laerm;62742;52.136;4.500;2023-06-10T13:24:27;47.18;44.15;55.43;;
72858;Laerm;62742;52.136;4.500;2023-06-10T13:27:02;47.11;44.35;53.83;;
72858;Laerm;62742;52.136;4.500;2023-06-10T13:29:33;47.64;44.90;50.56;;
72858;Laerm;62742;52.136;4.500;2023-06-10T13:32:03;47.76;44.54;55.32;;
72858;Laerm;62742;52.136;4.500;2023-06-10T13:34:35;47.63;43.33;56.89;;
72858;Laerm;62742;52.136;4.500;2023-06-10T13:37:05;47.14;43.76;54.02;;
72858;Laerm;62742;52.136;4.500;2023-06-10T13:39:33;47.43;43.61;55.92;;
72858;Laerm;62742;52.136;4.500;2023-06-10T13:42:09;47.71;44.98;49.93;;
72858;Laerm;62742;52.136;4.500;2023-06-10T13:44:41;47.55;44.30;49.79;;
72858;Laerm;62742;52.136;4.500;2023-06-10T13:47:08;47.55;44.15;55.27;;
72858;Laerm;62742;52.136;4.500;2023-06-10T13:53:15;47.48;44.22;55.57;;
72858;Laerm;62742;52.136;4.500;2023-06-10T13:55:42;47.50;44.79;55.44;;
72858;Laerm;62742;52.136;4.500;2023-06-10T13:58:08;47.51;44.44;56.88;;
72858;Laerm;62742;52.136;4.500;2023-06-10T14:00:35;47.74;43.98;55.39;;
72858;Laerm;62742;52.136;4.500;2023-06-10T14:03:27;47.69;44.93;57.12;;
72858;Laerm;62742;52.136;4.500;2023-06-10T14:06:12;47.58;44.67;55.14;;
72858;Laerm;62742;52.136;4.500;2023-06-10T14:09:00;47.49;44.62;54.21;;
72858;Laerm;62742;52.136;4.500;2023-06-10T14:11:45;47.59;43.34;53.79;;
72858;Laerm;62742;52.136;4.500;2023-06-10T14:14:16;47.60;45.00;49.70;;
72858;Laerm;62742;52.136;4.500;2023-06-10T14:16:52;47.58;44.13;55.95;;
72858;Laerm;62742;52.136;4.500;2023-06-10T14:19:28;47.44;44.60;55.57;;
72858;Laerm;62742;52.136;4.500;2023-06-10T14:21:59;47.61;45.01;55.97;;
72858;Laerm;62742;52.136;4.500;2023-06-10T14:24:26;47.57;45.23;55.98;;
72858;Laerm;62742;52.136;4.500;2023-06-10T14:26:54;47.45;45.11;54.50;;